Time;durP1;ratioP1;P1;durP2;ratioP2;P2;SDS_P1;SDS_P2;PMS_P1;PMS_P2;Temp;Humidity;BMP_temperature;BMP_pressure;BME280_temperature;BME280_humidity;BME280_pressure;Samples;Min_cycle;Max_cycle;Signal;HPM_P1;HPM_P2
2022/03/28 00:01:52;;;;;;;9.68;5.55;;;4.00;43.50;;;;;;5115032;28;20413;-62
2022/03/28 00:04:18;;;;;;;8.55;5.70;;;4.00;43.40;;;;;;5110657;28;20051;-62
2022/03/28 00:06:44;;;;;;;11.43;5.28;;;4.00;43.40;;;;;;5092527;28;20107;-62
2022/03/28 00:09:09;;;;;;;11.35;5.95;;;4.00;43.40;;;;;;5114626;28;20032;-61
2022/03/28 00:11:35;;;;;;;10.50;6.15;;;4.00;43.40;;;;;;5114780;28;20027;-62
2022/03/28 00:14:01;;;;;;;10.40;6.85;;;4.00;43.60;;;;;;5090027;28;20033;-62
2022/03/28 00:16:27;;;;;;;13.25;7.95;;;4.00;43.60;;;;;;5108894;28;20107;-62
2022/03/28 00:18:52;;;;;;;10.55;7.72;;;4.00;43.70;;;;;;5114644;28;20103;-62
2022/03/28 00:21:19;;;;;;;10.63;8.07;;;4.00;43.80;;;;;;5104188;28;20024;-62
2022/03/28 00:23:46;;;;;;;14.50;9.35;;;4.00;43.80;;;;;;5100475;28;20347;-62
2022/03/28 00:26:11;;;;;;;12.73;8.10;;;3.90;43.70;;;;;;5114234;28;20024;-61
2022/03/28 00:28:37;;;;;;;12.55;8.25;;;3.90;43.90;;;;;;5088028;28;20051;-61
2022/03/28 00:31:03;;;;;;;13.00;9.20;;;3.90;44.00;;;;;;5106726;28;20035;-62
2022/03/28 00:33:28;;;;;;;12.85;9.75;;;3.90;44.10;;;;;;5092651;28;20032;-62
2022/03/28 00:35:54;;;;;;;10.88;8.68;;;3.90;44.20;;;;;;5109587;28;20080;-62
2022/03/28 00:38:20;;;;;;;11.50;8.27;;;3.90;44.30;;;;;;5113748;28;20035;-62
2022/03/28 00:40:45;;;;;;;13.70;8.63;;;3.80;44.30;;;;;;5101015;28;20017;-61
2022/03/28 00:43:11;;;;;;;11.05;8.60;;;3.80;44.40;;;;;;5099217;27;20114;-62
2022/03/28 00:45:39;;;;;;;13.30;8.57;;;3.80;44.40;;;;;;5113683;28;20019;-62
2022/03/28 00:48:06;;;;;;;11.45;8.68;;;3.80;44.40;;;;;;5112549;28;20160;-61
2022/03/28 00:50:33;;;;;;;11.55;8.38;;;3.80;44.50;;;;;;5098688;28;20035;-62
2022/03/28 00:53:00;;;;;;;13.38;8.32;;;3.70;44.40;;;;;;5100010;28;20031;-61
2022/03/28 00:55:26;;;;;;;11.23;8.50;;;3.70;44.40;;;;;;5101478;28;20023;-62
2022/03/28 00:57:52;;;;;;;13.20;7.93;;;3.70;44.50;;;;;;5099988;28;20023;-62
2022/03/28 01:00:18;;;;;;;11.70;8.82;;;3.70;44.50;;;;;;5101549;28;20020;-62
2022/03/28 01:02:45;;;;;;;10.65;8.75;;;3.70;44.50;;;;;;5113052;28;20031;-62
2022/03/28 01:05:12;;;;;;;12.00;8.43;;;3.70;44.60;;;;;;5113488;28;20027;-61
2022/03/28 01:07:39;;;;;;;10.48;8.07;;;3.60;44.60;;;;;;5099959;28;20540;-62
2022/03/28 01:10:05;;;;;;;14.98;9.45;;;3.60;44.70;;;;;;5099976;28;20020;-61
2022/03/28 01:12:32;;;;;;;12.05;8.57;;;3.60;44.80;;;;;;5110130;28;20110;-62
2022/03/28 01:14:59;;;;;;;11.05;8.68;;;3.60;44.80;;;;;;5113269;28;20027;-61
2022/03/28 01:20:10;;;;;;;14.52;9.05;;;3.60;44.90;;;;;;5087822;28;20042;-62
2022/03/28 01:22:37;;;;;;;12.95;9.25;;;3.50;45.10;;;;;;5112809;28;20027;-62
2022/03/28 01:25:05;;;;;;;12.57;9.25;;;3.50;45.00;;;;;;5096624;28;20364;-62
2022/03/28 01:27:31;;;;;;;15.98;9.52;;;3.50;44.90;;;;;;5099670;28;20081;-61
2022/03/28 01:29:57;;;;;;;12.38;9.48;;;3.50;45.00;;;;;;5086195;28;20059;-61
2022/03/28 01:32:23;;;;;;;13.02;8.95;;;3.50;45.00;;;;;;5113083;28;20059;-62
2022/03/28 01:34:48;;;;;;;13.90;9.60;;;3.50;45.00;;;;;;5104171;28;20499;-62
2022/03/28 01:37:14;;;;;;;12.23;9.07;;;3.50;45.00;;;;;;5095694;28;20047;-62
2022/03/28 01:39:40;;;;;;;12.20;9.30;;;3.50;45.00;;;;;;5085802;28;20372;-62
2022/03/28 01:42:06;;;;;;;12.75;9.40;;;3.50;44.90;;;;;;5100298;28;20023;-62
2022/03/28 01:44:32;;;;;;;12.70;9.73;;;3.50;45.00;;;;;;5112793;28;20019;-62
2022/03/28 01:46:58;;;;;;;13.50;9.50;;;3.50;45.20;;;;;;5113305;28;20024;-62
2022/03/28 01:49:24;;;;;;;13.50;9.52;;;3.50;45.10;;;;;;5089192;28;20030;-62
2022/03/28 01:51:50;;;;;;;14.73;9.57;;;3.40;45.10;;;;;;5113022;28;20024;-62
2022/03/28 01:54:16;;;;;;;13.90;9.25;;;3.40;45.30;;;;;;5112956;28;20028;-61
2022/03/28 01:56:42;;;;;;;14.90;9.95;;;3.40;45.40;;;;;;5112789;28;20019;-61
2022/03/28 01:59:08;;;;;;;13.52;9.57;;;3.40;45.50;;;;;;5087838;28;20518;-61
2022/03/28 02:01:35;;;;;;;13.68;10.00;;;3.40;45.60;;;;;;5093520;28;20031;-62
2022/03/28 02:04:01;;;;;;;17.13;9.65;;;3.40;45.50;;;;;;5104371;28;20028;-61
2022/03/28 02:06:28;;;;;;;13.57;9.60;;;3.30;45.40;;;;;;5113210;28;20019;-62
2022/03/28 02:08:54;;;;;;;12.65;8.68;;;3.40;45.50;;;;;;5113174;28;20039;-62
2022/03/28 02:11:20;;;;;;;11.50;8.98;;;3.40;45.40;;;;;;5092387;28;20028;-62
2022/03/28 02:13:46;;;;;;;12.93;9.00;;;3.40;45.30;;;;;;5113032;28;20487;-62
2022/03/28 02:16:12;;;;;;;14.13;8.95;;;3.40;45.30;;;;;;5098980;28;20024;-62
2022/03/28 02:18:40;;;;;;;13.00;8.63;;;3.40;45.30;;;;;;5102006;28;20104;-62
2022/03/28 02:21:06;;;;;;;12.02;8.32;;;3.40;45.30;;;;;;5096838;28;20034;-62
2022/03/28 02:23:32;;;;;;;10.27;8.23;;;3.40;45.40;;;;;;5112802;28;20028;-61
2022/03/28 02:25:58;;;;;;;11.32;8.35;;;3.40;45.30;;;;;;5100822;28;20065;-61
2022/03/28 02:28:23;;;;;;;13.93;8.60;;;3.40;45.20;;;;;;5084307;28;20083;-61
2022/03/28 02:30:49;;;;;;;10.82;7.95;;;3.40;45.30;;;;;;5112481;28;20046;-61
2022/03/28 02:33:15;;;;;;;11.63;7.57;;;3.40;45.30;;;;;;5103299;28;20035;-62
2022/03/28 02:35:41;;;;;;;11.63;8.25;;;3.30;45.30;;;;;;5115913;28;20432;-61
2022/03/28 02:38:07;;;;;;;10.23;7.60;;;3.30;45.10;;;;;;5116235;28;20126;-61
2022/03/28 02:40:34;;;;;;;9.65;7.18;;;3.30;45.20;;;;;;5106248;28;20051;-61
2022/03/28 02:43:01;;;;;;;10.40;7.20;;;3.40;45.20;;;;;;5087455;28;20028;-61
2022/03/28 02:45:32;;;;;;;10.65;6.72;;;3.30;45.20;;;;;;5113120;28;20032;-61
2022/03/28 02:48:01;;;;;;;;;;;3.30;45.20;;;;;;5116710;28;20400;-61
2022/03/28 02:50:28;;;;;;;11.57;7.25;;;3.20;45.10;;;;;;5089437;28;20414;-62
2022/03/28 02:52:54;;;;;;;10.05;7.20;;;3.20;45.30;;;;;;5094088;28;20035;-62
2022/03/28 02:55:19;;;;;;;9.57;7.45;;;3.30;45.40;;;;;;5113558;28;20094;-62
2022/03/28 02:57:45;;;;;;;13.40;7.55;;;3.30;45.30;;;;;;5116099;28;20028;-62
2022/03/28 03:00:11;;;;;;;11.77;6.57;;;3.30;45.30;;;;;;5113271;28;20046;-62
2022/03/28 03:02:42;;;;;;;7.00;6.28;;;3.30;45.30;;;;;;5092487;28;20023;-62
2022/03/28 03:05:09;;;;;;;10.00;7.65;;;3.30;45.30;;;;;;5113680;28;20030;-62
2022/03/28 03:07:35;;;;;;;7.55;6.22;;;3.30;45.30;;;;;;5094923;28;20107;-62
2022/03/28 03:10:01;;;;;;;10.35;6.40;;;3.30;45.40;;;;;;5115669;28;20519;-61
2022/03/28 03:12:27;;;;;;;7.18;5.43;;;3.30;45.20;;;;;;5091893;28;20062;-61
2022/03/28 03:14:53;;;;;;;8.52;5.93;;;3.30;45.30;;;;;;5115515;28;20047;-61
2022/03/28 03:17:20;;;;;;;9.15;6.15;;;3.30;45.30;;;;;;5115513;28;20020;-62
2022/03/28 03:19:45;;;;;;;7.97;6.13;;;3.30;45.30;;;;;;5093432;28;20029;-62
2022/03/28 03:22:15;;;;;;;8.65;5.80;;;3.30;45.30;;;;;;5101920;28;20023;-62
2022/03/28 03:24:42;;;;;;;9.70;6.07;;;3.30;45.30;;;;;;5096696;28;20024;-62
2022/03/28 03:27:07;;;;;;;7.88;5.82;;;3.40;45.30;;;;;;5104657;28;20036;-62
2022/03/28 03:29:34;;;;;;;8.40;5.30;;;3.40;45.30;;;;;;5105517;28;20030;-62
2022/03/28 03:31:59;;;;;;;9.48;5.90;;;3.30;45.30;;;;;;5115458;28;20031;-62
2022/03/28 03:34:26;;;;;;;9.32;5.38;;;3.30;45.40;;;;;;5115122;28;20023;-61
2022/03/28 03:36:52;;;;;;;8.15;5.15;;;3.30;45.30;;;;;;5096701;28;20048;-62
2022/03/28 03:39:17;;;;;;;8.18;4.68;;;3.30;45.30;;;;;;5110671;28;20476;-62
2022/03/28 03:41:43;;;;;;;7.40;5.05;;;3.30;45.30;;;;;;5074780;28;20362;-61
2022/03/28 03:44:09;;;;;;;7.40;5.55;;;3.30;45.30;;;;;;5113831;28;20063;-61
2022/03/28 03:46:35;;;;;;;6.90;5.53;;;3.40;45.40;;;;;;5115055;28;20031;-62
2022/03/28 03:49:00;;;;;;;8.45;4.90;;;3.30;45.40;;;;;;5114899;28;20027;-62
2022/03/28 03:51:26;;;;;;;8.23;5.28;;;3.30;45.50;;;;;;5113739;28;20032;-62
2022/03/28 03:53:52;;;;;;;8.77;5.38;;;3.30;45.40;;;;;;5090450;28;20035;-61
2022/03/28 03:56:18;;;;;;;10.77;5.07;;;3.40;45.40;;;;;;5112423;28;20479;-61
2022/03/28 03:58:44;;;;;;;9.70;5.35;;;3.40;45.40;;;;;;5108779;28;20028;-61
2022/03/28 04:01:10;;;;;;;8.43;5.75;;;3.50;45.40;;;;;;5114651;28;20023;-62
2022/03/28 04:03:36;;;;;;;9.55;5.07;;;3.50;45.40;;;;;;5114787;28;20053;-62
2022/03/28 04:06:02;;;;;;;8.73;5.40;;;3.60;45.40;;;;;;5087247;28;20428;-62
2022/03/28 04:08:28;;;;;;;8.65;6.20;;;3.70;45.30;;;;;;5114917;28;20098;-62
2022/03/28 04:10:54;;;;;;;8.52;5.07;;;3.70;45.30;;;;;;5101112;28;20020;-62
2022/03/28 04:13:20;;;;;;;10.50;5.50;;;3.80;45.20;;;;;;5092148;28;20563;-62
2022/03/28 04:15:46;;;;;;;8.95;5.15;;;3.80;45.10;;;;;;5108884;28;20121;-61
2022/03/28 04:18:12;;;;;;;9.75;5.55;;;3.90;45.10;;;;;;5114378;28;20050;-62
2022/03/28 04:20:37;;;;;;;9.10;5.20;;;4.00;45.00;;;;;;5114329;28;20027;-62
2022/03/28 04:23:04;;;;;;;8.82;5.10;;;4.10;44.80;;;;;;5111152;28;20103;-62
2022/03/28 04:25:29;;;;;;;6.53;4.72;;;4.10;44.80;;;;;;5092952;28;20502;-62
2022/03/28 04:27:55;;;;;;;9.52;5.32;;;4.20;44.80;;;;;;5107663;28;20024;-62
2022/03/28 04:30:22;;;;;;;9.07;4.53;;;4.20;44.70;;;;;;5111405;28;20059;-62
2022/03/28 04:32:49;;;;;;;8.45;4.78;;;4.30;44.70;;;;;;5100932;28;20371;-62
2022/03/28 04:35:15;;;;;;;7.40;4.53;;;4.40;44.60;;;;;;5105755;28;20013;-62
2022/03/28 04:37:42;;;;;;;8.25;4.43;;;4.50;44.50;;;;;;5099199;28;20050;-60
2022/03/28 04:40:11;;;;;;;11.15;4.20;;;4.50;44.40;;;;;;5113885;28;20039;-62
2022/03/28 04:42:37;;;;;;;6.78;4.03;;;4.60;44.30;;;;;;5114181;28;20052;-62
2022/03/28 04:45:04;;;;;;;8.68;4.78;;;4.70;44.20;;;;;;5113872;28;20072;-62
2022/03/28 04:47:30;;;;;;;7.80;4.45;;;4.80;44.10;;;;;;5108213;28;20029;-62
2022/03/28 04:49:56;;;;;;;7.05;4.78;;;4.80;44.20;;;;;;5090888;28;20061;-62
2022/03/28 04:52:22;;;;;;;8.13;4.75;;;5.00;44.30;;;;;;5113593;28;20027;-63
2022/03/28 04:54:48;;;;;;;8.60;5.10;;;5.10;44.50;;;;;;5113559;28;20027;-62
2022/03/28 04:57:13;;;;;;;7.15;4.47;;;5.30;44.40;;;;;;5112671;28;20380;-62
2022/03/28 04:59:39;;;;;;;11.93;4.80;;;5.50;44.20;;;;;;5110927;28;20027;-60
2022/03/28 05:02:06;;;;;;;7.93;5.03;;;5.70;43.80;;;;;;5100745;28;20024;-63
2022/03/28 05:04:32;;;;;;;8.55;5.22;;;6.00;43.60;;;;;;5107872;28;20504;-61
2022/03/28 05:06:58;;;;;;;9.38;5.28;;;6.20;43.40;;;;;;5098847;28;20034;-61
2022/03/28 05:09:24;;;;;;;10.15;5.25;;;6.40;43.10;;;;;;5086285;28;20064;-61
2022/03/28 05:11:50;;;;;;;9.65;5.32;;;6.70;42.90;;;;;;5084753;28;20069;-61
2022/03/28 05:14:16;;;;;;;9.68;5.07;;;7.00;42.80;;;;;;5113502;28;20422;-61
2022/03/28 05:16:41;;;;;;;6.68;4.90;;;7.30;42.30;;;;;;5111828;28;20023;-61
2022/03/28 05:19:07;;;;;;;7.90;5.10;;;7.40;41.90;;;;;;5090035;28;20583;-61
2022/03/28 05:21:33;;;;;;;8.18;4.93;;;7.40;41.60;;;;;;5078605;28;20361;-61
2022/03/28 05:23:58;;;;;;;10.85;5.72;;;7.30;41.60;;;;;;5090025;28;20533;-61
2022/03/28 05:26:26;;;;;;;9.00;5.70;;;7.30;41.90;;;;;;5101327;28;20058;-61
2022/03/28 05:28:52;;;;;;;7.88;5.53;;;7.30;41.90;;;;;;5113039;28;20098;-61
2022/03/28 05:31:17;;;;;;;10.57;5.82;;;7.20;41.90;;;;;;5090068;28;20103;-61
2022/03/28 05:33:43;;;;;;;9.02;6.30;;;7.30;42.00;;;;;;5108160;28;20027;-61
2022/03/28 05:36:09;;;;;;;9.35;5.15;;;7.30;42.20;;;;;;5112636;28;20077;-63
2022/03/28 05:38:35;;;;;;;8.10;5.10;;;7.50;42.40;;;;;;5092041;28;20040;-63
2022/03/28 05:41:00;;;;;;;8.52;5.32;;;7.80;42.20;;;;;;5084358;28;20024;-62
2022/03/28 05:43:26;;;;;;;10.23;5.72;;;8.00;42.10;;;;;;5101655;28;20027;-61
2022/03/28 05:45:52;;;;;;;7.43;4.93;;;8.30;42.00;;;;;;5089463;28;20024;-61
2022/03/28 05:48:19;;;;;;;8.10;4.70;;;8.60;41.70;;;;;;5112869;28;20020;-61
2022/03/28 05:50:46;;;;;;;11.40;5.22;;;8.80;41.30;;;;;;5101470;28;20081;-61
2022/03/28 05:53:13;;;;;;;9.15;4.97;;;9.00;41.00;;;;;;5106481;28;20086;-61
2022/03/28 05:55:43;;;;;;;10.50;5.60;;;9.10;40.80;;;;;;5096613;28;20181;-61
2022/03/28 05:58:09;;;;;;;7.47;5.35;;;9.10;40.70;;;;;;5087089;28;20024;-61
2022/03/28 06:00:36;;;;;;;10.27;5.72;;;9.10;40.60;;;;;;5093145;28;20047;-61
2022/03/28 06:03:06;;;;;;;8.73;4.95;;;9.00;40.60;;;;;;5089809;28;20414;-62
2022/03/28 06:05:32;;;;;;;9.27;5.03;;;8.90;40.50;;;;;;5094171;28;20050;-61
2022/03/28 06:07:59;;;;;;;8.45;4.28;;;8.90;40.50;;;;;;5092566;28;20454;-62
2022/03/28 06:10:25;;;;;;;10.25;4.53;;;8.80;40.30;;;;;;5109012;28;20039;-61
2022/03/28 06:12:51;;;;;;;8.73;3.90;;;8.70;40.30;;;;;;5095531;28;20031;-62
2022/03/28 06:15:17;;;;;;;5.85;3.53;;;8.70;40.10;;;;;;5090209;27;20031;-62
2022/03/28 06:17:43;;;;;;;6.20;3.75;;;8.70;40.10;;;;;;5104509;28;20069;-61
2022/03/28 06:20:13;;;;;;;6.95;4.18;;;8.60;40.00;;;;;;5097477;27;20028;-61
2022/03/28 06:22:39;;;;;;;6.28;3.72;;;8.60;40.00;;;;;;5095452;28;20043;-62
2022/03/28 06:25:06;;;;;;;5.38;3.72;;;8.60;40.30;;;;;;5087018;28;20031;-61
2022/03/28 06:27:32;;;;;;;7.03;4.00;;;8.70;40.40;;;;;;5092680;28;20036;-62
2022/03/28 06:29:58;;;;;;;7.85;3.78;;;8.80;40.10;;;;;;5079374;28;20032;-61
2022/03/28 06:32:24;;;;;;;6.53;3.70;;;9.00;40.20;;;;;;5073574;28;20075;-62
2022/03/28 06:34:52;;;;;;;7.03;3.70;;;9.10;39.80;;;;;;5083348;28;20044;-62
2022/03/28 06:37:21;;;;;;;6.32;3.58;;;9.20;39.80;;;;;;5084697;28;20058;-62
2022/03/28 06:39:47;;;;;;;6.53;3.72;;;9.30;39.40;;;;;;5081718;28;20039;-61
2022/03/28 06:42:14;;;;;;;7.53;4.13;;;9.30;39.20;;;;;;5079295;28;20110;-62
2022/03/28 06:44:40;;;;;;;6.22;3.20;;;9.30;39.70;;;;;;5080932;28;20028;-61
2022/03/28 06:47:06;;;;;;;7.70;3.72;;;9.40;39.00;;;;;;5076382;28;20343;-61
2022/03/28 06:49:34;;;;;;;9.02;3.15;;;9.30;39.00;;;;;;5076085;28;20595;-61
2022/03/28 06:52:00;;;;;;;9.05;3.97;;;9.30;39.00;;;;;;5077831;28;20031;-61
2022/03/28 06:54:26;;;;;;;9.18;4.30;;;9.30;39.00;;;;;;5073255;28;20056;-61
2022/03/28 06:56:51;;;;;;;6.25;3.60;;;9.30;39.00;;;;;;5079366;28;20506;-60
2022/03/28 06:59:19;;;;;;;5.47;3.50;;;9.20;38.90;;;;;;5080032;28;20030;-60
2022/03/28 07:01:46;;;;;;;6.93;3.85;;;9.20;38.90;;;;;;5078710;28;20075;-60
2022/03/28 07:04:12;;;;;;;6.80;3.88;;;9.20;38.90;;;;;;5070582;28;20036;-60
2022/03/28 07:06:38;;;;;;;10.10;3.88;;;9.20;38.70;;;;;;5072523;28;20050;-59
2022/03/28 07:09:05;;;;;;;8.02;3.47;;;9.20;38.80;;;;;;5084273;28;20039;-60
2022/03/28 07:11:34;;;;;;;7.93;3.40;;;9.20;38.60;;;;;;5077298;28;20474;-59
2022/03/28 07:14:00;;;;;;;8.32;4.25;;;9.20;38.60;;;;;;5071194;28;20484;-59
2022/03/28 07:16:28;;;;;;;8.15;4.18;;;9.20;38.50;;;;;;5078410;28;20039;-58
2022/03/28 07:18:53;;;;;;;7.32;3.38;;;9.30;38.40;;;;;;5076212;28;20028;-58
2022/03/28 07:21:19;;;;;;;5.68;3.22;;;9.30;38.10;;;;;;5073021;28;20035;-59
2022/03/28 07:23:47;;;;;;;6.50;3.20;;;9.30;37.90;;;;;;5077605;28;20046;-59
2022/03/28 07:26:14;;;;;;;5.45;3.00;;;9.30;37.80;;;;;;5083377;28;20035;-59
2022/03/28 07:28:40;;;;;;;6.28;3.30;;;9.40;38.00;;;;;;5071497;28;20035;-57
2022/03/28 07:31:08;;;;;;;7.35;3.20;;;9.50;37.70;;;;;;5075865;28;20036;-59
2022/03/28 07:33:44;;;;;;;5.20;2.50;;;9.50;37.60;;;;;;5076562;28;20065;-59
2022/03/28 07:36:10;;;;;;;5.35;2.88;;;9.60;37.40;;;;;;5078733;28;20151;-59
2022/03/28 07:38:37;;;;;;;7.80;2.67;;;9.60;37.30;;;;;;5075478;28;20052;-58
2022/03/28 07:41:04;;;;;;;4.05;2.63;;;9.60;37.10;;;;;;5074505;28;20031;-60
2022/03/28 07:43:31;;;;;;;5.53;2.92;;;9.60;37.20;;;;;;5080861;28;20024;-59
2022/03/28 07:45:57;;;;;;;6.45;2.97;;;9.60;37.30;;;;;;5072457;28;22803;-59
2022/03/28 07:48:23;;;;;;;6.70;3.30;;;9.60;37.20;;;;;;5073888;28;20028;-57
2022/03/28 07:50:50;;;;;;;7.45;3.47;;;9.60;36.90;;;;;;5070174;28;20040;-58
2022/03/28 07:53:16;;;;;;;7.78;3.13;;;9.60;37.00;;;;;;5069186;28;20054;-59
2022/03/28 07:55:42;;;;;;;5.07;3.08;;;9.60;36.80;;;;;;5072955;28;20116;-58
2022/03/28 07:58:10;;;;;;;3.90;2.80;;;9.60;36.80;;;;;;5068204;28;20508;-58
2022/03/28 08:00:40;;;;;;;5.93;2.72;;;9.60;36.70;;;;;;5068754;28;20028;-58
2022/03/28 08:03:06;;;;;;;4.20;2.95;;;9.60;36.80;;;;;;5074643;28;20028;-59
2022/03/28 08:05:32;;;;;;;6.50;3.08;;;9.70;36.80;;;;;;5074853;28;20024;-58
2022/03/28 08:07:58;;;;;;;3.95;2.55;;;9.70;36.50;;;;;;5071728;28;20122;-57
2022/03/28 08:10:25;;;;;;;5.65;3.42;;;9.70;36.40;;;;;;5067392;28;20024;-58
2022/03/28 08:12:52;;;;;;;7.38;3.10;;;9.70;36.20;;;;;;5069471;28;20039;-58
2022/03/28 08:15:21;;;;;;;8.95;3.40;;;9.70;36.20;;;;;;5070796;28;20032;-58
2022/03/28 08:17:47;;;;;;;5.28;3.25;;;9.70;36.50;;;;;;5071186;28;20046;-58
2022/03/28 08:20:14;;;;;;;6.10;2.90;;;9.80;36.60;;;;;;5073987;28;20036;-58
2022/03/28 08:22:46;;;;;;;5.00;3.42;;;9.90;36.50;;;;;;5070020;28;20034;-59
2022/03/28 08:25:13;;;;;;;10.43;3.58;;;10.00;36.50;;;;;;5069822;28;20031;-59
2022/03/28 08:27:39;;;;;;;6.43;3.08;;;10.10;36.50;;;;;;5064457;28;20036;-59
2022/03/28 08:30:06;;;;;;;6.25;3.20;;;10.20;37.10;;;;;;5066309;28;20457;-58
2022/03/28 08:32:33;;;;;;;4.47;3.22;;;10.30;36.40;;;;;;5067588;28;20496;-59
2022/03/28 08:34:59;;;;;;;4.05;2.80;;;10.30;36.20;;;;;;5064562;28;20032;-58
2022/03/28 08:37:27;;;;;;;6.63;2.83;;;10.40;36.00;;;;;;5061864;28;20062;-58
2022/03/28 08:39:55;;;;;;;6.88;3.42;;;10.50;36.10;;;;;;5068707;28;20029;-58
2022/03/28 08:42:27;;;;;;;5.45;2.63;;;10.50;36.10;;;;;;5071984;28;20039;-58
2022/03/28 08:44:53;;;;;;;9.63;3.33;;;10.60;35.80;;;;;;5073233;28;20039;-57
2022/03/28 08:47:22;;;;;;;6.55;3.15;;;10.60;35.60;;;;;;5070704;28;20709;-58
2022/03/28 08:49:50;;;;;;;4.35;2.92;;;10.60;36.00;;;;;;5071477;28;20032;-58
2022/03/28 08:52:16;;;;;;;6.40;2.95;;;10.70;36.10;;;;;;5069370;28;20116;-58
2022/03/28 08:54:43;;;;;;;7.10;2.67;;;10.70;35.90;;;;;;5068854;28;20032;-58
2022/03/28 08:57:12;;;;;;;8.20;2.75;;;10.80;36.00;;;;;;5063121;28;20065;-58
2022/03/28 08:59:38;;;;;;;5.53;3.10;;;10.80;35.80;;;;;;5056250;28;20045;-56
2022/03/28 09:02:04;;;;;;;7.28;3.35;;;10.80;35.80;;;;;;5064012;28;20515;-58
2022/03/28 09:04:31;;;;;;;5.95;2.97;;;10.80;35.90;;;;;;5075073;28;20028;-59
2022/03/28 09:06:57;;;;;;;4.55;3.00;;;10.70;35.90;;;;;;5072130;28;20035;-58
2022/03/28 09:09:28;;;;;;;4.20;2.75;;;10.80;36.10;;;;;;5059249;28;20119;-59
2022/03/28 09:12:05;;;;;;;6.97;3.17;;;10.80;36.00;;;;;;5067859;28;20043;-59
2022/03/28 09:14:33;;;;;;;7.32;3.03;;;10.80;36.10;;;;;;5070795;28;20033;-59
2022/03/28 09:17:10;;;;;;;5.97;2.85;;;10.80;36.10;;;;;;5069490;28;20047;-58
2022/03/28 09:19:49;;;;;;;6.53;2.83;;;10.80;36.10;;;;;;5072348;28;20028;-58
2022/03/28 09:22:20;;;;;;;6.20;3.22;;;10.90;36.20;;;;;;5062437;28;20031;-58
2022/03/28 09:24:48;;;;;;;4.05;3.08;;;11.00;36.20;;;;;;5066169;28;20381;-58
2022/03/28 09:27:21;;;;;;;7.65;3.42;;;11.00;36.80;;;;;;5064518;28;20032;-58
2022/03/28 09:30:02;;;;;;;5.72;3.20;;;11.20;36.20;;;;;;5060321;28;20047;-58
2022/03/28 09:32:52;;;;;;;5.68;2.95;;;11.20;36.10;;;;;;5058067;28;21915;-59
2022/03/28 09:35:20;;;;;;;8.20;3.40;;;11.30;36.40;;;;;;5056733;28;20029;-59
2022/03/28 09:37:58;;;;;;;3.92;2.65;;;11.40;36.10;;;;;;5062994;28;20057;-58
2022/03/28 09:40:32;;;;;;;3.85;3.08;;;11.40;35.90;;;;;;5068673;28;20035;-58
2022/03/28 09:42:59;;;;;;;3.58;2.35;;;11.40;35.80;;;;;;5073003;28;20388;-58
2022/03/28 09:45:31;;;;;;;4.07;3.00;;;11.40;35.80;;;;;;5068226;28;20056;-58
2022/03/28 09:48:09;;;;;;;6.38;2.75;;;11.40;35.80;;;;;;5062315;28;20030;-59
2022/03/28 09:50:41;;;;;;;4.38;2.63;;;11.40;36.00;;;;;;5064543;28;20039;-59
2022/03/28 09:53:25;;;;;;;5.30;2.80;;;11.40;35.80;;;;;;5072221;28;20172;-58
2022/03/28 09:56:04;;;;;;;4.32;2.90;;;11.40;35.70;;;;;;5071602;28;20028;-59
2022/03/28 09:58:56;;;;;;;8.32;3.63;;;11.30;36.00;;;;;;5072694;28;20492;-58
2022/03/28 10:01:42;;;;;;;;;;;11.40;36.00;;;;;;5072288;28;20027;-58
2022/03/28 10:04:11;;;;;;;5.57;2.97;;;11.30;36.10;;;;;;5069393;28;19919;-59
2022/03/28 10:06:38;;;;;;;5.18;3.20;;;11.40;36.40;;;;;;5071170;28;20408;-59
2022/03/28 10:09:05;;;;;;;5.00;3.22;;;11.40;36.00;;;;;;5076034;28;20033;-58
2022/03/28 10:11:32;;;;;;;4.63;3.20;;;11.50;36.10;;;;;;5068904;28;20040;-58
2022/03/28 10:13:58;;;;;;;5.78;3.03;;;11.60;36.10;;;;;;5069496;28;20118;-59
2022/03/28 10:16:25;;;;;;;8.18;2.90;;;11.70;36.00;;;;;;5062117;28;20028;-58
2022/03/28 10:18:51;;;;;;;10.23;3.75;;;11.70;36.10;;;;;;5067587;28;20648;-59
2022/03/28 10:21:24;;;;;;;5.78;3.75;;;11.80;36.20;;;;;;5073542;28;20838;-57
2022/03/28 10:23:54;;;;;;;5.20;3.30;;;11.90;36.20;;;;;;5071148;28;20028;-58
2022/03/28 10:26:27;;;;;;;6.85;2.70;;;12.00;36.10;;;;;;5077891;28;20038;-57
2022/03/28 10:29:09;;;;;;;4.18;3.03;;;12.10;35.90;;;;;;5074839;28;20342;-57
2022/03/28 10:31:56;;;;;;;;;;;12.20;35.90;;;;;;5074496;28;20089;-57
2022/03/28 10:34:43;;;;;;;4.53;3.20;;;12.20;36.20;;;;;;5075773;28;20269;-58
2022/03/28 10:37:31;;;;;;;8.35;3.25;;;12.20;36.10;;;;;;5074898;28;20705;-57
2022/03/28 10:40:15;;;;;;;10.77;3.40;;;12.30;36.00;;;;;;5070712;28;20026;-57
2022/03/28 10:43:11;;;;;;;7.57;3.17;;;12.30;36.20;;;;;;5074138;28;20072;-58
2022/03/28 10:45:58;;;;;;;5.70;3.38;;;12.30;36.20;;;;;;5069844;28;20035;-56
2022/03/28 10:49:09;;;;;;;7.53;2.75;;;12.40;36.10;;;;;;5065955;28;20036;-58
2022/03/28 10:51:47;;;;;;;7.38;2.85;;;12.40;36.00;;;;;;5069022;28;20449;-57
2022/03/28 10:54:12;;;;;;;6.65;3.00;;;12.40;36.00;;;;;;5077037;28;20723;-57
2022/03/28 10:56:43;;;;;;;7.13;2.70;;;12.30;36.00;;;;;;5074944;28;20024;-58
2022/03/28 10:59:12;;;;;;;6.63;2.75;;;12.30;35.90;;;;;;5073019;28;20032;-57
2022/03/28 11:01:42;;;;;;;4.63;2.47;;;12.30;35.80;;;;;;5073658;28;20484;-57
2022/03/28 11:04:22;;;;;;;4.20;2.60;;;12.30;35.70;;;;;;5072962;28;20043;-57
2022/03/28 11:06:53;;;;;;;5.00;2.50;;;12.20;35.60;;;;;;5078360;28;20180;-58
2022/03/28 11:09:51;;;;;;;4.82;2.60;;;12.20;35.80;;;;;;5079727;28;20060;-59
2022/03/28 11:12:30;;;;;;;4.43;2.70;;;12.10;35.80;;;;;;5073700;28;20111;-58
2022/03/28 11:15:05;;;;;;;6.55;3.00;;;12.10;35.90;;;;;;5076793;28;20558;-57
2022/03/28 11:17:35;;;;;;;7.38;2.80;;;12.10;35.80;;;;;;5074918;28;20028;-57
2022/03/28 11:20:07;;;;;;;7.35;2.90;;;12.10;35.60;;;;;;5079127;28;20023;-57
2022/03/28 11:23:06;;;;;;;7.57;2.85;;;12.10;35.50;;;;;;5070757;28;20060;-57
2022/03/28 11:25:51;;;;;;;4.57;2.70;;;12.10;35.50;;;;;;5071852;28;20545;-58
2022/03/28 11:28:23;;;;;;;4.78;3.03;;;12.20;35.40;;;;;;5075025;28;20027;-58
2022/03/28 11:31:09;;;;;;;5.53;2.97;;;12.10;35.40;;;;;;5075369;28;20085;-58
2022/03/28 11:33:38;;;;;;;12.27;3.65;;;12.20;35.40;;;;;;5070121;28;20435;-58
2022/03/28 11:36:08;;;;;;;5.80;3.00;;;12.20;35.50;;;;;;5074667;28;20496;-59
2022/03/28 11:38:49;;;;;;;7.88;3.00;;;12.10;35.40;;;;;;5072272;28;20099;-59
2022/03/28 11:41:17;;;;;;;9.75;3.60;;;12.10;35.40;;;;;;5078081;28;20036;-59
2022/03/28 11:43:48;;;;;;;9.35;3.10;;;12.10;35.40;;;;;;5066107;28;20124;-59
2022/03/28 11:46:14;;;;;;;;;;;12.20;35.60;;;;;;5076484;28;20043;-59
2022/03/28 11:48:59;;;;;;;6.85;2.97;;;12.20;35.50;;;;;;5071448;28;20569;-58
2022/03/28 11:51:34;;;;;;;4.38;2.78;;;12.20;35.30;;;;;;5070238;28;20032;-59
2022/03/28 11:54:02;;;;;;;4.07;3.00;;;12.30;35.40;;;;;;5075466;28;20122;-59
2022/03/28 11:56:31;;;;;;;11.48;3.13;;;12.30;35.20;;;;;;5072358;28;20065;-59
2022/03/28 11:59:01;;;;;;;5.80;2.80;;;12.30;35.00;;;;;;5072860;28;20028;-59
2022/03/28 12:01:28;;;;;;;8.93;3.05;;;12.30;34.90;;;;;;5069829;28;20017;-59
2022/03/28 12:03:54;;;;;;;5.35;2.92;;;12.30;34.90;;;;;;5073217;28;20054;-59
2022/03/28 12:06:30;;;;;;;11.57;3.10;;;12.30;34.90;;;;;;5062164;28;20032;-60
2022/03/28 12:08:57;;;;;;;5.55;2.80;;;12.30;34.70;;;;;;5065475;28;20031;-59
2022/03/28 12:11:24;;;;;;;5.63;2.88;;;12.40;34.50;;;;;;5067876;28;20036;-61
2022/03/28 12:13:51;;;;;;;5.10;3.03;;;12.30;34.20;;;;;;5068232;28;20032;-60
2022/03/28 12:16:17;;;;;;;8.55;2.65;;;12.30;34.30;;;;;;5071616;28;20020;-58
2022/03/28 12:18:44;;;;;;;6.43;2.92;;;12.30;34.40;;;;;;5078163;28;20041;-60
2022/03/28 12:21:10;;;;;;;5.25;3.08;;;12.40;34.20;;;;;;5071790;28;20132;-60
2022/03/28 12:23:37;;;;;;;5.93;2.80;;;12.40;34.70;;;;;;5067547;28;20036;-60
2022/03/28 12:26:05;;;;;;;6.40;2.53;;;12.40;34.20;;;;;;5073620;28;20571;-60
2022/03/28 12:28:36;;;;;;;6.07;2.55;;;12.40;34.20;;;;;;5059592;28;20119;-60
2022/03/28 12:31:05;;;;;;;;;;;12.40;34.20;;;;;;5068921;28;20039;-61
2022/03/28 12:33:38;;;;;;;7.88;3.10;;;12.40;34.30;;;;;;5067495;28;19963;-59
2022/03/28 12:36:25;;;;;;;7.03;3.80;;;12.40;34.40;;;;;;5068784;28;20096;-60
2022/03/28 12:39:00;;;;;;;4.88;3.10;;;12.50;34.30;;;;;;5071410;28;20039;-61
2022/03/28 12:41:27;;;;;;;5.85;2.70;;;12.50;34.30;;;;;;5066900;28;20036;-61
2022/03/28 12:43:53;;;;;;;7.90;2.70;;;12.60;34.50;;;;;;5070299;28;20033;-59
2022/03/28 12:46:19;;;;;;;4.03;2.47;;;12.60;34.40;;;;;;5068014;28;20089;-59
2022/03/28 12:48:49;;;;;;;8.48;2.88;;;12.60;34.20;;;;;;5062489;28;20024;-59
2022/03/28 12:51:35;;;;;;;6.50;3.13;;;12.60;34.40;;;;;;5068675;28;20441;-59
2022/03/28 12:54:11;;;;;;;8.90;2.83;;;12.70;34.30;;;;;;5066293;28;20051;-59
2022/03/28 12:56:56;;;;;;;6.25;2.97;;;12.70;34.30;;;;;;5072441;28;20032;-60
2022/03/28 12:59:25;;;;;;;7.22;2.97;;;12.80;34.20;;;;;;5070319;28;20031;-59
2022/03/28 13:01:53;;;;;;;5.28;3.05;;;12.80;34.20;;;;;;5068694;28;20028;-58
2022/03/28 13:04:21;;;;;;;8.07;3.00;;;12.80;34.20;;;;;;5065635;28;20118;-59